sensor_id;sensor_type;location;lat;lon;timestamp;P1;durP1;ratioP1;P2;durP2;ratioP2
4112;SDS011;2070;51.042;7.056;2023-07-08T00:00:07;10.27;;;3.63;;
4112;SDS011;2070;51.042;7.056;2023-07-08T00:02:34;9.43;;;3.40;;
4112;SDS011;2070;51.042;7.056;2023-07-08T00:04:59;4.10;;;2.43;;
4112;SDS011;2070;51.042;7.056;2023-07-08T00:07:25;10.47;;;3.90;;
4112;SDS011;2070;51.042;7.056;2023-07-08T00:09:50;5.33;;;2.80;;
4112;SDS011;2070;51.042;7.056;2023-07-08T00:12:15;5.67;;;3.17;;
4112;SDS011;2070;51.042;7.056;2023-07-08T00:14:40;8.80;;;3.80;;
4112;SDS011;2070;51.042;7.056;2023-07-08T00:17:11;6.83;;;2.70;;
4112;SDS011;2070;51.042;7.056;2023-07-08T00:19:38;8.07;;;3.90;;
4112;SDS011;2070;51.042;7.056;2023-07-08T00:22:07;6.60;;;3.07;;
4112;SDS011;2070;51.042;7.056;2023-07-08T00:24:32;7.80;;;3.17;;
4112;SDS011;2070;51.042;7.056;2023-07-08T00:26:58;13.17;;;3.67;;
4112;SDS011;2070;51.042;7.056;2023-07-08T00:29:23;6.10;;;3.13;;
4112;SDS011;2070;51.042;7.056;2023-07-08T00:31:48;7.83;;;3.07;;
4112;SDS011;2070;51.042;7.056;2023-07-08T00:34:13;7.43;;;3.27;;
4112;SDS011;2070;51.042;7.056;2023-07-08T00:36:40;4.90;;;2.83;;
4112;SDS011;2070;51.042;7.056;2023-07-08T00:39:09;4.27;;;2.73;;
4112;SDS011;2070;51.042;7.056;2023-07-08T00:41:38;6.10;;;2.87;;
4112;SDS011;2070;51.042;7.056;2023-07-08T00:44:05;5.40;;;2.00;;
4112;SDS011;2070;51.042;7.056;2023-07-08T00:46:31;5.67;;;3.17;;
4112;SDS011;2070;51.042;7.056;2023-07-08T00:51:26;4.23;;;2.57;;
4112;SDS011;2070;51.042;7.056;2023-07-08T00:53:51;6.20;;;2.80;;
4112;SDS011;2070;51.042;7.056;2023-07-08T00:56:24;7.20;;;3.30;;
4112;SDS011;2070;51.042;7.056;2023-07-08T00:58:53;4.97;;;3.13;;
4112;SDS011;2070;51.042;7.056;2023-07-08T01:01:21;5.90;;;3.10;;
4112;SDS011;2070;51.042;7.056;2023-07-08T01:03:53;6.37;;;3.43;;
4112;SDS011;2070;51.042;7.056;2023-07-08T01:06:19;8.50;;;3.40;;
4112;SDS011;2070;51.042;7.056;2023-07-08T01:08:46;9.10;;;2.90;;
4112;SDS011;2070;51.042;7.056;2023-07-08T01:11:12;6.77;;;3.17;;
4112;SDS011;2070;51.042;7.056;2023-07-08T01:13:38;7.83;;;3.90;;
4112;SDS011;2070;51.042;7.056;2023-07-08T01:16:05;13.73;;;2.50;;
4112;SDS011;2070;51.042;7.056;2023-07-08T01:18:30;7.30;;;3.00;;
4112;SDS011;2070;51.042;7.056;2023-07-08T01:20:55;6.80;;;4.03;;
4112;SDS011;2070;51.042;7.056;2023-07-08T01:23:21;3.60;;;2.83;;
4112;SDS011;2070;51.042;7.056;2023-07-08T01:25:47;7.73;;;3.17;;
4112;SDS011;2070;51.042;7.056;2023-07-08T01:28:12;4.23;;;3.27;;
4112;SDS011;2070;51.042;7.056;2023-07-08T01:30:38;4.77;;;2.73;;
4112;SDS011;2070;51.042;7.056;2023-07-08T01:33:05;3.33;;;2.27;;
4112;SDS011;2070;51.042;7.056;2023-07-08T01:35:32;5.67;;;3.37;;
4112;SDS011;2070;51.042;7.056;2023-07-08T01:37:58;4.87;;;2.73;;
4112;SDS011;2070;51.042;7.056;2023-07-08T01:40:25;5.13;;;3.17;;
4112;SDS011;2070;51.042;7.056;2023-07-08T01:42:51;6.80;;;2.93;;
4112;SDS011;2070;51.042;7.056;2023-07-08T01:45:17;5.77;;;2.93;;
4112;SDS011;2070;51.042;7.056;2023-07-08T01:47:43;3.50;;;2.40;;
4112;SDS011;2070;51.042;7.056;2023-07-08T01:50:11;6.33;;;3.23;;
4112;SDS011;2070;51.042;7.056;2023-07-08T01:52:36;5.33;;;3.43;;
4112;SDS011;2070;51.042;7.056;2023-07-08T01:55:02;3.20;;;2.60;;
4112;SDS011;2070;51.042;7.056;2023-07-08T01:57:27;5.10;;;3.57;;
4112;SDS011;2070;51.042;7.056;2023-07-08T01:59:52;5.77;;;3.00;;
4112;SDS011;2070;51.042;7.056;2023-07-08T02:02:17;3.83;;;3.07;;
4112;SDS011;2070;51.042;7.056;2023-07-08T02:04:43;4.27;;;2.57;;
4112;SDS011;2070;51.042;7.056;2023-07-08T02:07:08;5.57;;;3.20;;
4112;SDS011;2070;51.042;7.056;2023-07-08T02:09:33;6.23;;;3.77;;
4112;SDS011;2070;51.042;7.056;2023-07-08T02:11:58;4.77;;;3.30;;
4112;SDS011;2070;51.042;7.056;2023-07-08T02:14:23;6.10;;;3.37;;
4112;SDS011;2070;51.042;7.056;2023-07-08T02:16:48;3.93;;;2.47;;
4112;SDS011;2070;51.042;7.056;2023-07-08T02:19:14;6.17;;;2.97;;
4112;SDS011;2070;51.042;7.056;2023-07-08T02:21:39;5.90;;;3.43;;
4112;SDS011;2070;51.042;7.056;2023-07-08T02:24:04;8.37;;;3.77;;
4112;SDS011;2070;51.042;7.056;2023-07-08T02:26:30;2.87;;;2.40;;
4112;SDS011;2070;51.042;7.056;2023-07-08T02:28:58;6.70;;;2.97;;
4112;SDS011;2070;51.042;7.056;2023-07-08T02:31:24;5.30;;;2.27;;
4112;SDS011;2070;51.042;7.056;2023-07-08T02:33:51;5.33;;;3.10;;
4112;SDS011;2070;51.042;7.056;2023-07-08T02:36:16;4.27;;;3.10;;
4112;SDS011;2070;51.042;7.056;2023-07-08T02:38:41;6.40;;;2.30;;
4112;SDS011;2070;51.042;7.056;2023-07-08T02:41:06;4.90;;;2.87;;
4112;SDS011;2070;51.042;7.056;2023-07-08T02:43:31;4.10;;;3.07;;
4112;SDS011;2070;51.042;7.056;2023-07-08T02:45:57;4.87;;;3.20;;
4112;SDS011;2070;51.042;7.056;2023-07-08T02:48:22;3.40;;;2.63;;
4112;SDS011;2070;51.042;7.056;2023-07-08T02:50:47;3.33;;;3.00;;
4112;SDS011;2070;51.042;7.056;2023-07-08T02:53:12;6.37;;;3.77;;
4112;SDS011;2070;51.042;7.056;2023-07-08T02:55:38;2.67;;;2.33;;
4112;SDS011;2070;51.042;7.056;2023-07-08T02:58:03;6.03;;;3.70;;
4112;SDS011;2070;51.042;7.056;2023-07-08T03:00:29;6.13;;;2.70;;
4112;SDS011;2070;51.042;7.056;2023-07-08T03:02:54;4.30;;;3.10;;
4112;SDS011;2070;51.042;7.056;2023-07-08T03:05:19;7.13;;;3.57;;
4112;SDS011;2070;51.042;7.056;2023-07-08T03:07:44;3.70;;;2.53;;
4112;SDS011;2070;51.042;7.056;2023-07-08T03:10:09;5.50;;;3.67;;
4112;SDS011;2070;51.042;7.056;2023-07-08T03:12:35;7.27;;;2.83;;
4112;SDS011;2070;51.042;7.056;2023-07-08T03:15:00;6.53;;;2.30;;
4112;SDS011;2070;51.042;7.056;2023-07-08T03:17:25;2.97;;;2.70;;
4112;SDS011;2070;51.042;7.056;2023-07-08T03:19:50;5.17;;;3.10;;
4112;SDS011;2070;51.042;7.056;2023-07-08T03:22:16;5.43;;;3.00;;
4112;SDS011;2070;51.042;7.056;2023-07-08T03:24:41;4.13;;;3.17;;
4112;SDS011;2070;51.042;7.056;2023-07-08T03:27:11;4.33;;;2.50;;
4112;SDS011;2070;51.042;7.056;2023-07-08T03:29:36;4.07;;;2.97;;
4112;SDS011;2070;51.042;7.056;2023-07-08T03:32:02;5.10;;;3.40;;
4112;SDS011;2070;51.042;7.056;2023-07-08T03:34:27;4.07;;;3.00;;
4112;SDS011;2070;51.042;7.056;2023-07-08T03:36:52;4.97;;;2.77;;
4112;SDS011;2070;51.042;7.056;2023-07-08T03:39:19;3.30;;;2.77;;
4112;SDS011;2070;51.042;7.056;2023-07-08T03:41:45;4.47;;;3.07;;
4112;SDS011;2070;51.042;7.056;2023-07-08T03:44:10;3.40;;;3.00;;
4112;SDS011;2070;51.042;7.056;2023-07-08T03:46:36;4.43;;;2.93;;
4112;SDS011;2070;51.042;7.056;2023-07-08T03:49:01;5.60;;;3.23;;
4112;SDS011;2070;51.042;7.056;2023-07-08T03:51:30;4.07;;;2.87;;
4112;SDS011;2070;51.042;7.056;2023-07-08T03:53:56;3.30;;;3.00;;
4112;SDS011;2070;51.042;7.056;2023-07-08T03:56:22;8.03;;;2.70;;
4112;SDS011;2070;51.042;7.056;2023-07-08T03:58:47;4.73;;;2.90;;
4112;SDS011;2070;51.042;7.056;2023-07-08T04:01:14;6.33;;;3.10;;
4112;SDS011;2070;51.042;7.056;2023-07-08T04:03:40;7.00;;;4.07;;
4112;SDS011;2070;51.042;7.056;2023-07-08T04:06:05;5.63;;;3.47;;
4112;SDS011;2070;51.042;7.056;2023-07-08T04:08:30;4.30;;;3.60;;
4112;SDS011;2070;51.042;7.056;2023-07-08T04:10:56;3.97;;;3.47;;
4112;SDS011;2070;51.042;7.056;2023-07-08T04:13:21;6.33;;;3.10;;
4112;SDS011;2070;51.042;7.056;2023-07-08T04:15:49;5.83;;;2.87;;
4112;SDS011;2070;51.042;7.056;2023-07-08T04:18:15;4.37;;;2.70;;
4112;SDS011;2070;51.042;7.056;2023-07-08T04:20:40;8.70;;;2.83;;
4112;SDS011;2070;51.042;7.056;2023-07-08T04:23:05;5.77;;;3.10;;
4112;SDS011;2070;51.042;7.056;2023-07-08T04:25:30;7.00;;;3.60;;
4112;SDS011;2070;51.042;7.056;2023-07-08T04:27:56;4.77;;;3.20;;
4112;SDS011;2070;51.042;7.056;2023-07-08T04:30:23;4.87;;;2.97;;
4112;SDS011;2070;51.042;7.056;2023-07-08T04:32:49;5.97;;;3.57;;
4112;SDS011;2070;51.042;7.056;2023-07-08T04:35:14;16.30;;;3.30;;
4112;SDS011;2070;51.042;7.056;2023-07-08T04:37:40;8.17;;;4.47;;
4112;SDS011;2070;51.042;7.056;2023-07-08T04:40:05;9.17;;;3.10;;
4112;SDS011;2070;51.042;7.056;2023-07-08T04:42:32;4.87;;;3.20;;
4112;SDS011;2070;51.042;7.056;2023-07-08T04:44:58;6.30;;;3.27;;
4112;SDS011;2070;51.042;7.056;2023-07-08T04:47:23;5.40;;;3.17;;
4112;SDS011;2070;51.042;7.056;2023-07-08T04:49:48;5.80;;;3.10;;
4112;SDS011;2070;51.042;7.056;2023-07-08T04:52:13;7.57;;;3.27;;
4112;SDS011;2070;51.042;7.056;2023-07-08T04:54:38;3.27;;;2.90;;
4112;SDS011;2070;51.042;7.056;2023-07-08T04:57:04;7.33;;;3.77;;
4112;SDS011;2070;51.042;7.056;2023-07-08T04:59:29;6.17;;;3.20;;
4112;SDS011;2070;51.042;7.056;2023-07-08T05:01:59;3.77;;;2.97;;
4112;SDS011;2070;51.042;7.056;2023-07-08T05:04:24;6.80;;;3.10;;
4112;SDS011;2070;51.042;7.056;2023-07-08T05:06:50;5.90;;;3.37;;
4112;SDS011;2070;51.042;7.056;2023-07-08T05:09:15;5.33;;;3.60;;
4112;SDS011;2070;51.042;7.056;2023-07-08T05:11:40;3.30;;;2.40;;
4112;SDS011;2070;51.042;7.056;2023-07-08T05:14:05;9.73;;;2.93;;
4112;SDS011;2070;51.042;7.056;2023-07-08T05:16:32;4.83;;;2.83;;
4112;SDS011;2070;51.042;7.056;2023-07-08T05:18:57;6.77;;;3.43;;
4112;SDS011;2070;51.042;7.056;2023-07-08T05:21:23;6.10;;;3.33;;
4112;SDS011;2070;51.042;7.056;2023-07-08T05:23:48;5.03;;;3.37;;
4112;SDS011;2070;51.042;7.056;2023-07-08T05:26:16;5.17;;;3.07;;
4112;SDS011;2070;51.042;7.056;2023-07-08T05:28:42;3.47;;;3.07;;
4112;SDS011;2070;51.042;7.056;2023-07-08T05:31:07;6.13;;;3.47;;
4112;SDS011;2070;51.042;7.056;2023-07-08T05:33:33;5.20;;;3.27;;
4112;SDS011;2070;51.042;7.056;2023-07-08T05:35:58;5.93;;;2.97;;
4112;SDS011;2070;51.042;7.056;2023-07-08T05:38:24;6.67;;;3.40;;
4112;SDS011;2070;51.042;7.056;2023-07-08T05:40:49;4.97;;;3.23;;
4112;SDS011;2070;51.042;7.056;2023-07-08T05:43:18;6.43;;;3.67;;
4112;SDS011;2070;51.042;7.056;2023-07-08T05:45:43;9.97;;;4.07;;
4112;SDS011;2070;51.042;7.056;2023-07-08T05:48:09;6.57;;;3.57;;
4112;SDS011;2070;51.042;7.056;2023-07-08T05:50:34;8.40;;;3.37;;
4112;SDS011;2070;51.042;7.056;2023-07-08T05:52:59;5.20;;;2.70;;
4112;SDS011;2070;51.042;7.056;2023-07-08T05:55:24;8.20;;;4.30;;
4112;SDS011;2070;51.042;7.056;2023-07-08T05:57:49;5.07;;;3.50;;
4112;SDS011;2070;51.042;7.056;2023-07-08T06:00:15;4.67;;;3.17;;
4112;SDS011;2070;51.042;7.056;2023-07-08T06:02:40;7.53;;;3.47;;
4112;SDS011;2070;51.042;7.056;2023-07-08T06:05:05;3.83;;;2.43;;
4112;SDS011;2070;51.042;7.056;2023-07-08T06:07:30;8.97;;;3.60;;
4112;SDS011;2070;51.042;7.056;2023-07-08T06:09:57;6.17;;;3.00;;
4112;SDS011;2070;51.042;7.056;2023-07-08T06:12:22;6.63;;;3.50;;
4112;SDS011;2070;51.042;7.056;2023-07-08T06:14:48;6.30;;;3.60;;
4112;SDS011;2070;51.042;7.056;2023-07-08T06:17:14;9.30;;;4.17;;
4112;SDS011;2070;51.042;7.056;2023-07-08T06:19:39;3.90;;;2.77;;
4112;SDS011;2070;51.042;7.056;2023-07-08T06:22:04;6.20;;;3.37;;
4112;SDS011;2070;51.042;7.056;2023-07-08T06:24:29;8.70;;;3.43;;
4112;SDS011;2070;51.042;7.056;2023-07-08T06:26:55;6.00;;;3.60;;
4112;SDS011;2070;51.042;7.056;2023-07-08T06:29:20;12.40;;;5.03;;
4112;SDS011;2070;51.042;7.056;2023-07-08T06:31:45;9.20;;;3.93;;
4112;SDS011;2070;51.042;7.056;2023-07-08T06:34:10;6.10;;;3.57;;
4112;SDS011;2070;51.042;7.056;2023-07-08T06:36:35;4.70;;;3.37;;
4112;SDS011;2070;51.042;7.056;2023-07-08T06:39:01;10.60;;;4.60;;
4112;SDS011;2070;51.042;7.056;2023-07-08T06:41:26;4.50;;;3.67;;
4112;SDS011;2070;51.042;7.056;2023-07-08T06:43:51;8.53;;;4.20;;
4112;SDS011;2070;51.042;7.056;2023-07-08T06:46:17;6.50;;;3.63;;
4112;SDS011;2070;51.042;7.056;2023-07-08T06:48:44;9.47;;;3.67;;
4112;SDS011;2070;51.042;7.056;2023-07-08T06:51:09;8.93;;;4.20;;
4112;SDS011;2070;51.042;7.056;2023-07-08T06:53:34;5.10;;;3.70;;
4112;SDS011;2070;51.042;7.056;2023-07-08T06:55:59;8.03;;;4.57;;
4112;SDS011;2070;51.042;7.056;2023-07-08T06:58:24;15.00;;;5.33;;
4112;SDS011;2070;51.042;7.056;2023-07-08T07:00:49;5.70;;;4.37;;
4112;SDS011;2070;51.042;7.056;2023-07-08T07:03:15;9.60;;;4.33;;
4112;SDS011;2070;51.042;7.056;2023-07-08T07:05:40;12.37;;;4.80;;
4112;SDS011;2070;51.042;7.056;2023-07-08T07:08:05;15.53;;;4.70;;
4112;SDS011;2070;51.042;7.056;2023-07-08T07:10:33;8.30;;;3.87;;
4112;SDS011;2070;51.042;7.056;2023-07-08T07:12:59;9.97;;;4.33;;
4112;SDS011;2070;51.042;7.056;2023-07-08T07:15:24;8.50;;;3.97;;
4112;SDS011;2070;51.042;7.056;2023-07-08T07:17:50;17.47;;;5.30;;
4112;SDS011;2070;51.042;7.056;2023-07-08T07:20:15;12.20;;;4.33;;
4112;SDS011;2070;51.042;7.056;2023-07-08T07:22:40;11.60;;;4.20;;
4112;SDS011;2070;51.042;7.056;2023-07-08T07:25:05;22.80;;;5.20;;
4112;SDS011;2070;51.042;7.056;2023-07-08T07:27:31;19.57;;;4.60;;
4112;SDS011;2070;51.042;7.056;2023-07-08T07:29:56;19.07;;;5.20;;
4112;SDS011;2070;51.042;7.056;2023-07-08T07:32:24;15.97;;;5.67;;
4112;SDS011;2070;51.042;7.056;2023-07-08T07:34:50;14.70;;;4.47;;
4112;SDS011;2070;51.042;7.056;2023-07-08T07:37:16;12.17;;;5.07;;
4112;SDS011;2070;51.042;7.056;2023-07-08T07:39:41;10.80;;;4.20;;
4112;SDS011;2070;51.042;7.056;2023-07-08T07:42:07;5.20;;;3.47;;
4112;SDS011;2070;51.042;7.056;2023-07-08T07:44:32;12.37;;;4.70;;
4112;SDS011;2070;51.042;7.056;2023-07-08T07:46:58;11.60;;;5.13;;
4112;SDS011;2070;51.042;7.056;2023-07-08T07:49:23;17.90;;;5.70;;
4112;SDS011;2070;51.042;7.056;2023-07-08T07:51:48;18.47;;;5.70;;
4112;SDS011;2070;51.042;7.056;2023-07-08T07:54:13;12.37;;;5.17;;
4112;SDS011;2070;51.042;7.056;2023-07-08T07:56:39;19.33;;;5.67;;
4112;SDS011;2070;51.042;7.056;2023-07-08T07:59:04;5.60;;;3.40;;
4112;SDS011;2070;51.042;7.056;2023-07-08T08:01:29;11.43;;;4.37;;
4112;SDS011;2070;51.042;7.056;2023-07-08T08:03:54;20.67;;;5.13;;
4112;SDS011;2070;51.042;7.056;2023-07-08T08:06:20;13.93;;;5.10;;
4112;SDS011;2070;51.042;7.056;2023-07-08T08:08:45;16.80;;;4.67;;
4112;SDS011;2070;51.042;7.056;2023-07-08T08:11:10;13.60;;;4.50;;
4112;SDS011;2070;51.042;7.056;2023-07-08T08:13:36;18.13;;;6.70;;
4112;SDS011;2070;51.042;7.056;2023-07-08T08:16:01;19.47;;;5.93;;
4112;SDS011;2070;51.042;7.056;2023-07-08T08:18:27;13.17;;;4.47;;
4112;SDS011;2070;51.042;7.056;2023-07-08T08:20:52;13.90;;;4.37;;
4112;SDS011;2070;51.042;7.056;2023-07-08T08:23:17;24.83;;;6.33;;
4112;SDS011;2070;51.042;7.056;2023-07-08T08:25:43;18.30;;;5.30;;
4112;SDS011;2070;51.042;7.056;2023-07-08T08:28:08;15.90;;;5.13;;
4112;SDS011;2070;51.042;7.056;2023-07-08T08:30:33;21.90;;;5.53;;
4112;SDS011;2070;51.042;7.056;2023-07-08T08:32:59;14.67;;;4.73;;
4112;SDS011;2070;51.042;7.056;2023-07-08T08:35:24;24.63;;;5.47;;
4112;SDS011;2070;51.042;7.056;2023-07-08T08:37:49;15.30;;;4.90;;
4112;SDS011;2070;51.042;7.056;2023-07-08T08:40:15;24.73;;;5.87;;
4112;SDS011;2070;51.042;7.056;2023-07-08T08:42:42;16.37;;;5.23;;
4112;SDS011;2070;51.042;7.056;2023-07-08T08:45:10;21.33;;;5.33;;
4112;SDS011;2070;51.042;7.056;2023-07-08T08:47:43;18.63;;;5.60;;
4112;SDS011;2070;51.042;7.056;2023-07-08T08:53:09;17.20;;;5.20;;
4112;SDS011;2070;51.042;7.056;2023-07-08T08:55:35;21.37;;;5.50;;
4112;SDS011;2070;51.042;7.056;2023-07-08T09:00:57;22.13;;;5.10;;
4112;SDS011;2070;51.042;7.056;2023-07-08T09:06:14;21.57;;;5.03;;
4112;SDS011;2070;51.042;7.056;2023-07-08T09:08:40;20.40;;;5.30;;
4112;SDS011;2070;51.042;7.056;2023-07-08T09:13:39;16.50;;;4.30;;
4112;SDS011;2070;51.042;7.056;2023-07-08T09:16:06;25.93;;;5.30;;
4112;SDS011;2070;51.042;7.056;2023-07-08T09:18:36;21.50;;;5.37;;
4112;SDS011;2070;51.042;7.056;2023-07-08T09:21:06;17.77;;;4.97;;
4112;SDS011;2070;51.042;7.056;2023-07-08T09:23:38;24.87;;;4.87;;
4112;SDS011;2070;51.042;7.056;2023-07-08T09:26:07;14.80;;;4.30;;
4112;SDS011;2070;51.042;7.056;2023-07-08T09:28:40;12.07;;;3.70;;
4112;SDS011;2070;51.042;7.056;2023-07-08T09:31:06;12.73;;;3.83;;
4112;SDS011;2070;51.042;7.056;2023-07-08T09:33:32;19.07;;;4.80;;
4112;SDS011;2070;51.042;7.056;2023-07-08T09:35:57;17.97;;;5.00;;
4112;SDS011;2070;51.042;7.056;2023-07-08T09:38:22;31.67;;;5.70;;
4112;SDS011;2070;51.042;7.056;2023-07-08T09:40:52;20.13;;;4.80;;
4112;SDS011;2070;51.042;7.056;2023-07-08T09:45:49;13.37;;;4.40;;
4112;SDS011;2070;51.042;7.056;2023-07-08T09:48:23;14.40;;;4.63;;
4112;SDS011;2070;51.042;7.056;2023-07-08T09:50:49;7.33;;;3.57;;
4112;SDS011;2070;51.042;7.056;2023-07-08T09:53:16;19.83;;;5.20;;
4112;SDS011;2070;51.042;7.056;2023-07-08T09:55:41;13.90;;;3.70;;
4112;SDS011;2070;51.042;7.056;2023-07-08T09:58:08;14.30;;;4.03;;
4112;SDS011;2070;51.042;7.056;2023-07-08T10:00:39;17.30;;;4.33;;
4112;SDS011;2070;51.042;7.056;2023-07-08T10:03:20;18.30;;;3.87;;
4112;SDS011;2070;51.042;7.056;2023-07-08T10:05:46;15.00;;;4.10;;
4112;SDS011;2070;51.042;7.056;2023-07-08T10:08:16;22.43;;;4.83;;
4112;SDS011;2070;51.042;7.056;2023-07-08T10:10:42;14.90;;;3.80;;
4112;SDS011;2070;51.042;7.056;2023-07-08T10:13:17;21.07;;;3.67;;
4112;SDS011;2070;51.042;7.056;2023-07-08T10:15:49;15.63;;;4.20;;
4112;SDS011;2070;51.042;7.056;2023-07-08T10:18:17;19.53;;;5.47;;
4112;SDS011;2070;51.042;7.056;2023-07-08T10:26:00;23.60;;;4.90;;
4112;SDS011;2070;51.042;7.056;2023-07-08T10:28:51;19.80;;;4.80;;
4112;SDS011;2070;51.042;7.056;2023-07-08T10:31:22;16.27;;;3.97;;
4112;SDS011;2070;51.042;7.056;2023-07-08T10:33:55;10.73;;;3.83;;
4112;SDS011;2070;51.042;7.056;2023-07-08T10:41:26;18.73;;;4.70;;
4112;SDS011;2070;51.042;7.056;2023-07-08T10:46:46;30.40;;;5.27;;
4112;SDS011;2070;51.042;7.056;2023-07-08T11:01:54;19.57;;;6.10;;
4112;SDS011;2070;51.042;7.056;2023-07-08T11:06:57;25.90;;;5.43;;
4112;SDS011;2070;51.042;7.056;2023-07-08T11:09:28;19.77;;;4.43;;
4112;SDS011;2070;51.042;7.056;2023-07-08T11:11:56;18.43;;;4.27;;
4112;SDS011;2070;51.042;7.056;2023-07-08T11:14:32;16.67;;;4.80;;
4112;SDS011;2070;51.042;7.056;2023-07-08T11:19:26;27.60;;;4.80;;
4112;SDS011;2070;51.042;7.056;2023-07-08T11:21:56;19.70;;;4.93;;
4112;SDS011;2070;51.042;7.056;2023-07-08T11:24:37;25.30;;;5.10;;
4112;SDS011;2070;51.042;7.056;2023-07-08T11:27:09;24.50;;;4.90;;
4112;SDS011;2070;51.042;7.056;2023-07-08T11:29:46;24.90;;;5.67;;
4112;SDS011;2070;51.042;7.056;2023-07-08T11:32:13;18.83;;;4.40;;
4112;SDS011;2070;51.042;7.056;2023-07-08T11:34:40;16.03;;;4.40;;
4112;SDS011;2070;51.042;7.056;2023-07-08T11:37:06;21.87;;;4.77;;
4112;SDS011;2070;51.042;7.056;2023-07-08T11:44:43;11.93;;;4.20;;
4112;SDS011;2070;51.042;7.056;2023-07-08T11:47:24;14.30;;;3.97;;
4112;SDS011;2070;51.042;7.056;2023-07-08T11:49:50;18.60;;;3.83;;
4112;SDS011;2070;51.042;7.056;2023-07-08T11:52:17;20.00;;;4.70;;
4112;SDS011;2070;51.042;7.056;2023-07-08T11:54:44;16.63;;;3.73;;
4112;SDS011;2070;51.042;7.056;2023-07-08T11:57:24;13.63;;;3.87;;
4112;SDS011;2070;51.042;7.056;2023-07-08T12:00:05;18.50;;;4.17;;
4112;SDS011;2070;51.042;7.056;2023-07-08T12:02:30;19.83;;;4.47;;
4112;SDS011;2070;51.042;7.056;2023-07-08T12:05:12;15.10;;;4.00;;
4112;SDS011;2070;51.042;7.056;2023-07-08T12:12:35;26.57;;;5.20;;
4112;SDS011;2070;51.042;7.056;2023-07-08T12:15:21;33.10;;;5.20;;
4112;SDS011;2070;51.042;7.056;2023-07-08T12:17:47;29.13;;;4.77;;
4112;SDS011;2070;51.042;7.056;2023-07-08T12:20:16;23.80;;;4.70;;
4112;SDS011;2070;51.042;7.056;2023-07-08T12:22:42;27.13;;;5.47;;
4112;SDS011;2070;51.042;7.056;2023-07-08T12:25:09;30.43;;;4.70;;
4112;SDS011;2070;51.042;7.056;2023-07-08T12:27:37;19.90;;;5.10;;
4112;SDS011;2070;51.042;7.056;2023-07-08T12:30:02;26.50;;;4.73;;
4112;SDS011;2070;51.042;7.056;2023-07-08T12:32:27;26.20;;;5.40;;
4112;SDS011;2070;51.042;7.056;2023-07-08T12:34:53;17.73;;;3.47;;
4112;SDS011;2070;51.042;7.056;2023-07-08T12:37:19;24.33;;;4.77;;
4112;SDS011;2070;51.042;7.056;2023-07-08T12:39:44;15.63;;;3.73;;
4112;SDS011;2070;51.042;7.056;2023-07-08T12:42:18;23.97;;;4.73;;
4112;SDS011;2070;51.042;7.056;2023-07-08T12:44:43;22.20;;;5.10;;
4112;SDS011;2070;51.042;7.056;2023-07-08T12:47:09;12.33;;;3.80;;
4112;SDS011;2070;51.042;7.056;2023-07-08T12:49:34;22.40;;;4.60;;
4112;SDS011;2070;51.042;7.056;2023-07-08T12:51:59;14.27;;;3.20;;
4112;SDS011;2070;51.042;7.056;2023-07-08T12:54:27;27.93;;;4.50;;
4112;SDS011;2070;51.042;7.056;2023-07-08T12:56:52;20.63;;;3.70;;
4112;SDS011;2070;51.042;7.056;2023-07-08T12:59:19;27.07;;;4.60;;
4112;SDS011;2070;51.042;7.056;2023-07-08T13:01:46;13.80;;;3.97;;
4112;SDS011;2070;51.042;7.056;2023-07-08T13:04:12;23.43;;;4.80;;
4112;SDS011;2070;51.042;7.056;2023-07-08T13:06:38;20.83;;;5.43;;
4112;SDS011;2070;51.042;7.056;2023-07-08T13:11:33;21.17;;;4.93;;
4112;SDS011;2070;51.042;7.056;2023-07-08T13:13:59;22.80;;;4.83;;
4112;SDS011;2070;51.042;7.056;2023-07-08T13:16:28;17.57;;;4.17;;
4112;SDS011;2070;51.042;7.056;2023-07-08T13:18:54;21.93;;;5.20;;
4112;SDS011;2070;51.042;7.056;2023-07-08T13:21:19;18.70;;;5.20;;
4112;SDS011;2070;51.042;7.056;2023-07-08T13:23:44;15.57;;;4.30;;
4112;SDS011;2070;51.042;7.056;2023-07-08T13:26:14;29.27;;;5.80;;
4112;SDS011;2070;51.042;7.056;2023-07-08T13:28:39;27.57;;;5.60;;
4112;SDS011;2070;51.042;7.056;2023-07-08T13:33:46;41.77;;;6.90;;
4112;SDS011;2070;51.042;7.056;2023-07-08T13:36:11;27.80;;;5.73;;
4112;SDS011;2070;51.042;7.056;2023-07-08T13:38:38;28.47;;;5.23;;
4112;SDS011;2070;51.042;7.056;2023-07-08T13:41:04;28.67;;;5.70;;
4112;SDS011;2070;51.042;7.056;2023-07-08T13:43:36;28.30;;;5.47;;
4112;SDS011;2070;51.042;7.056;2023-07-08T13:46:02;16.57;;;4.33;;
4112;SDS011;2070;51.042;7.056;2023-07-08T13:48:28;10.33;;;3.43;;
4112;SDS011;2070;51.042;7.056;2023-07-08T13:51:01;24.63;;;5.17;;
4112;SDS011;2070;51.042;7.056;2023-07-08T13:53:35;16.57;;;4.87;;
4112;SDS011;2070;51.042;7.056;2023-07-08T13:58:43;18.93;;;4.73;;
4112;SDS011;2070;51.042;7.056;2023-07-08T14:01:14;27.50;;;5.40;;
4112;SDS011;2070;51.042;7.056;2023-07-08T14:03:40;17.87;;;4.77;;
4112;SDS011;2070;51.042;7.056;2023-07-08T14:06:10;22.50;;;4.77;;
4112;SDS011;2070;51.042;7.056;2023-07-08T14:08:35;27.17;;;4.73;;
4112;SDS011;2070;51.042;7.056;2023-07-08T14:11:01;23.80;;;4.90;;
4112;SDS011;2070;51.042;7.056;2023-07-08T14:13:26;32.00;;;5.83;;
4112;SDS011;2070;51.042;7.056;2023-07-08T14:15:53;24.70;;;5.00;;
4112;SDS011;2070;51.042;7.056;2023-07-08T14:18:18;18.17;;;4.47;;
4112;SDS011;2070;51.042;7.056;2023-07-08T14:20:43;14.87;;;4.10;;
4112;SDS011;2070;51.042;7.056;2023-07-08T14:23:09;16.27;;;5.00;;
4112;SDS011;2070;51.042;7.056;2023-07-08T14:25:34;25.90;;;5.70;;
4112;SDS011;2070;51.042;7.056;2023-07-08T14:28:00;22.60;;;5.07;;
4112;SDS011;2070;51.042;7.056;2023-07-08T14:30:25;10.03;;;4.00;;
4112;SDS011;2070;51.042;7.056;2023-07-08T14:32:50;27.30;;;5.47;;
4112;SDS011;2070;51.042;7.056;2023-07-08T14:37:41;25.20;;;5.43;;
4112;SDS011;2070;51.042;7.056;2023-07-08T14:40:24;17.10;;;5.03;;
4112;SDS011;2070;51.042;7.056;2023-07-08T14:42:51;18.47;;;5.63;;
4112;SDS011;2070;51.042;7.056;2023-07-08T14:45:18;30.77;;;5.43;;
4112;SDS011;2070;51.042;7.056;2023-07-08T14:47:43;24.40;;;4.73;;
4112;SDS011;2070;51.042;7.056;2023-07-08T14:50:12;16.83;;;4.93;;
4112;SDS011;2070;51.042;7.056;2023-07-08T14:52:37;18.27;;;5.27;;
4112;SDS011;2070;51.042;7.056;2023-07-08T14:55:03;16.63;;;3.83;;
4112;SDS011;2070;51.042;7.056;2023-07-08T14:57:30;20.20;;;4.10;;
4112;SDS011;2070;51.042;7.056;2023-07-08T14:59:56;11.77;;;4.17;;
4112;SDS011;2070;51.042;7.056;2023-07-08T15:02:22;12.30;;;4.50;;
4112;SDS011;2070;51.042;7.056;2023-07-08T15:04:47;23.03;;;4.83;;
4112;SDS011;2070;51.042;7.056;2023-07-08T15:07:13;23.93;;;5.20;;
4112;SDS011;2070;51.042;7.056;2023-07-08T15:09:38;31.27;;;5.67;;
4112;SDS011;2070;51.042;7.056;2023-07-08T15:12:03;30.50;;;5.70;;
4112;SDS011;2070;51.042;7.056;2023-07-08T15:14:29;24.23;;;5.17;;
4112;SDS011;2070;51.042;7.056;2023-07-08T15:16:54;27.40;;;4.63;;
4112;SDS011;2070;51.042;7.056;2023-07-08T15:19:19;18.97;;;4.93;;
4112;SDS011;2070;51.042;7.056;2023-07-08T15:21:45;24.57;;;6.07;;
4112;SDS011;2070;51.042;7.056;2023-07-08T15:24:11;17.63;;;4.77;;
4112;SDS011;2070;51.042;7.056;2023-07-08T15:26:43;22.17;;;5.27;;
4112;SDS011;2070;51.042;7.056;2023-07-08T15:29:14;18.70;;;5.20;;
4112;SDS011;2070;51.042;7.056;2023-07-08T15:31:40;19.40;;;5.30;;
4112;SDS011;2070;51.042;7.056;2023-07-08T15:34:11;22.97;;;5.60;;
4112;SDS011;2070;51.042;7.056;2023-07-08T15:36:37;19.87;;;4.80;;
4112;SDS011;2070;51.042;7.056;2023-07-08T15:39:03;23.53;;;4.83;;
4112;SDS011;2070;51.042;7.056;2023-07-08T15:41:28;25.23;;;5.33;;
4112;SDS011;2070;51.042;7.056;2023-07-08T15:43:55;15.07;;;4.50;;
4112;SDS011;2070;51.042;7.056;2023-07-08T15:46:20;19.70;;;4.80;;
4112;SDS011;2070;51.042;7.056;2023-07-08T15:48:46;15.63;;;4.53;;
4112;SDS011;2070;51.042;7.056;2023-07-08T15:51:14;14.27;;;4.23;;
4112;SDS011;2070;51.042;7.056;2023-07-08T15:53:40;26.43;;;5.60;;
4112;SDS011;2070;51.042;7.056;2023-07-08T15:56:05;16.73;;;5.27;;
4112;SDS011;2070;51.042;7.056;2023-07-08T15:58:32;16.87;;;5.27;;
4112;SDS011;2070;51.042;7.056;2023-07-08T16:00:58;15.97;;;5.00;;
4112;SDS011;2070;51.042;7.056;2023-07-08T16:03:25;15.93;;;5.50;;
4112;SDS011;2070;51.042;7.056;2023-07-08T16:05:54;20.63;;;5.30;;
4112;SDS011;2070;51.042;7.056;2023-07-08T16:08:20;27.03;;;5.70;;
4112;SDS011;2070;51.042;7.056;2023-07-08T16:10:50;20.35;;;4.63;;